createdAt,value
2023-04-15T00:01:10.184Z,36.39
2023-04-15T00:03:37.440Z,36.30
2023-04-15T00:06:04.692Z,36.86
2023-04-15T00:08:31.644Z,36.67
2023-04-15T00:11:02.869Z,36.79
2023-04-15T00:13:30.154Z,36.68
2023-04-15T00:15:57.028Z,36.24
2023-04-15T00:18:24.899Z,36.53
2023-04-15T00:20:52.705Z,36.31
2023-04-15T00:23:19.714Z,36.44
2023-04-15T00:25:47.039Z,36.85
2023-04-15T00:28:14.216Z,36.18
2023-04-15T00:30:41.860Z,36.57
2023-04-15T00:33:09.168Z,36.79
2023-04-15T00:35:37.497Z,36.61
2023-04-15T00:38:05.518Z,37.04
2023-04-15T00:40:32.435Z,36.43
2023-04-15T00:42:59.526Z,36.45
2023-04-15T00:45:27.583Z,36.76
2023-04-15T00:47:58.584Z,36.82
2023-04-15T00:50:25.574Z,38.24
2023-04-15T00:52:52.712Z,38.97
2023-04-15T00:55:19.692Z,39.33
2023-04-15T00:57:46.844Z,38.49
2023-04-15T01:00:13.962Z,39.86
2023-04-15T01:02:41.527Z,40.67
2023-04-15T01:05:09.486Z,40.32
2023-04-15T01:07:36.821Z,40.57
2023-04-15T01:10:04.718Z,40.07
2023-04-15T01:12:32.624Z,40.45
2023-04-15T01:14:59.724Z,40.73
2023-04-15T01:17:26.710Z,41.42
2023-04-15T01:19:53.608Z,40.79
2023-04-15T01:22:21.176Z,41.38
2023-04-15T01:24:56.171Z,41.28
2023-04-15T01:27:23.152Z,41.22
2023-04-15T01:29:50.086Z,41.45
2023-04-15T01:32:17.260Z,41.29
2023-04-15T01:35:03.019Z,39.79
2023-04-15T01:37:48.450Z,40.12
2023-04-15T01:40:17.559Z,39.97
2023-04-15T01:42:45.772Z,39.77
2023-04-15T01:45:14.171Z,39.31
2023-04-15T01:47:42.556Z,39.13
2023-04-15T01:50:11.521Z,39.31
2023-04-15T01:52:39.668Z,39.52
2023-04-15T01:55:08.666Z,39.63
2023-04-15T01:57:37.166Z,39.64
2023-04-15T02:00:07.729Z,40.12
2023-04-15T02:02:44.931Z,40.45
2023-04-15T02:05:13.256Z,41.09
2023-04-15T02:07:42.600Z,41.87
2023-04-15T02:10:11.748Z,40.93
2023-04-15T02:12:40.690Z,41.59
2023-04-15T02:15:10.184Z,41.32
2023-04-15T02:17:38.443Z,42.57
2023-04-15T02:20:08.784Z,42.38
2023-04-15T02:22:37.280Z,42.69
2023-04-15T02:25:06.262Z,41.94
2023-04-15T02:27:34.392Z,41.57
2023-04-15T02:30:03.290Z,42.06
2023-04-15T02:32:31.667Z,42.28
2023-04-15T02:35:04.307Z,42.50
2023-04-15T02:37:33.014Z,42.85
2023-04-15T02:40:01.598Z,43.43
2023-04-15T02:42:30.454Z,42.60
2023-04-15T02:45:01.750Z,42.70
2023-04-15T02:47:34.911Z,42.91
2023-04-15T02:50:09.588Z,43.33
2023-04-15T02:52:38.860Z,43.33
2023-04-15T02:55:08.288Z,43.04
2023-04-15T02:57:38.956Z,42.45
2023-04-15T03:00:11.625Z,41.86
2023-04-15T03:02:43.142Z,42.70
2023-04-15T03:05:12.791Z,42.06
2023-04-15T03:07:44.124Z,42.10
2023-04-15T03:10:12.997Z,42.26
2023-04-15T03:12:41.686Z,41.09
2023-04-15T03:15:13.242Z,42.35
2023-04-15T03:17:46.362Z,42.62
2023-04-15T03:20:14.681Z,42.02
2023-04-15T03:22:42.926Z,42.12
2023-04-15T03:25:11.482Z,41.46
2023-04-15T03:27:39.680Z,41.63
2023-04-15T03:30:09.056Z,40.81
2023-04-15T03:32:39.704Z,40.46
2023-04-15T03:35:09.710Z,40.98
2023-04-15T03:37:37.954Z,40.85
2023-04-15T03:40:06.829Z,41.14
2023-04-15T03:42:34.915Z,41.17
2023-04-15T03:45:03.634Z,41.72
2023-04-15T03:47:32.133Z,40.96
2023-04-15T03:50:00.497Z,40.64
2023-04-15T03:52:28.725Z,40.32
2023-04-15T03:54:57.062Z,39.94
2023-04-15T03:57:25.630Z,40.34
2023-04-15T03:59:53.931Z,39.43
2023-04-15T04:02:23.256Z,38.88
2023-04-15T04:04:51.940Z,38.75
2023-04-15T04:07:20.398Z,38.65
2023-04-15T04:09:48.501Z,38.72
2023-04-15T04:12:16.652Z,38.74
2023-04-15T04:14:44.929Z,37.54
2023-04-15T04:17:13.286Z,37.87
2023-04-15T04:19:41.614Z,37.88
2023-04-15T04:22:09.839Z,37.39
2023-04-15T04:24:38.063Z,37.50
2023-04-15T04:27:06.314Z,37.34
2023-04-15T04:29:34.537Z,36.91
2023-04-15T04:32:02.741Z,35.96
2023-04-15T04:34:31.260Z,35.92
2023-04-15T04:36:59.547Z,35.48
2023-04-15T04:39:27.805Z,36.16
2023-04-15T04:41:56.140Z,35.27
2023-04-15T04:44:24.344Z,35.21
2023-04-15T04:46:52.620Z,35.96
2023-04-15T04:49:20.934Z,35.72
2023-04-15T04:51:49.129Z,34.99
2023-04-15T04:54:17.672Z,34.74
2023-04-15T04:56:45.859Z,34.42
2023-04-15T04:59:14.171Z,34.32
2023-04-15T05:01:42.851Z,34.15
2023-04-15T05:04:11.580Z,34.04
2023-04-15T05:06:39.921Z,33.20
2023-04-15T05:09:08.118Z,33.68
2023-04-15T05:11:36.602Z,32.56
2023-04-15T05:14:04.734Z,33.21
2023-04-15T05:16:32.988Z,32.79
2023-04-15T05:19:01.315Z,32.11
2023-04-15T05:21:29.723Z,32.71
2023-04-15T05:23:57.802Z,32.55
2023-04-15T05:26:27.606Z,33.55
2023-04-15T05:28:55.796Z,32.61
2023-04-15T05:31:24.067Z,33.23
2023-04-15T05:33:52.233Z,32.77
2023-04-15T05:36:20.326Z,33.12
2023-04-15T05:38:48.481Z,32.52
2023-04-15T05:41:19.601Z,31.89
2023-04-15T05:43:48.142Z,32.37
2023-04-15T05:46:16.660Z,32.38
2023-04-15T05:48:45.001Z,32.24
2023-04-15T05:51:13.162Z,31.75
2023-04-15T05:53:41.783Z,32.09
2023-04-15T05:56:09.916Z,31.81
2023-04-15T05:58:38.144Z,32.59
2023-04-15T06:01:06.511Z,31.96
2023-04-15T06:03:34.770Z,31.78
2023-04-15T06:06:03.692Z,31.48
2023-04-15T06:08:31.882Z,31.30
2023-04-15T06:11:00.540Z,30.83
2023-04-15T06:13:28.781Z,30.81
2023-04-15T06:15:56.889Z,30.58
2023-04-15T06:18:25.000Z,30.64
2023-04-15T06:20:53.220Z,31.12
2023-04-15T06:23:21.561Z,31.52
2023-04-15T06:25:49.659Z,31.64
2023-04-15T06:28:17.900Z,31.00
2023-04-15T06:30:46.154Z,31.18
2023-04-15T06:33:14.385Z,32.17
2023-04-15T06:35:42.529Z,31.75
2023-04-15T06:38:10.680Z,30.16
2023-04-15T06:40:38.885Z,29.80
2023-04-15T06:43:08.109Z,29.26
2023-04-15T06:45:36.346Z,29.28
2023-04-15T06:48:04.840Z,29.21
2023-04-15T06:50:33.163Z,29.20
2023-04-15T06:53:01.298Z,28.91
2023-04-15T06:55:29.596Z,29.05
2023-04-15T06:57:57.815Z,28.50
2023-04-15T07:00:26.295Z,28.64
2023-04-15T07:02:55.440Z,28.09
2023-04-15T07:05:23.684Z,27.67
2023-04-15T07:07:51.898Z,27.93
2023-04-15T07:10:20.506Z,28.28
2023-04-15T07:12:48.963Z,28.84
2023-04-15T07:15:17.272Z,28.97
2023-04-15T07:17:45.666Z,28.46
2023-04-15T07:20:14.001Z,28.56
2023-04-15T07:22:42.307Z,28.41
2023-04-15T07:25:10.454Z,27.91
2023-04-15T07:27:38.621Z,28.17
2023-04-15T07:30:07.536Z,28.77
2023-04-15T07:32:36.095Z,29.90
2023-04-15T07:35:04.637Z,30.09
2023-04-15T07:37:31.626Z,28.99
2023-04-15T07:39:59.891Z,28.32
2023-04-15T07:42:29.356Z,28.46
2023-04-15T07:44:57.758Z,29.23
2023-04-15T07:47:25.880Z,29.49
2023-04-15T07:49:54.042Z,28.99
2023-04-15T07:52:22.318Z,27.71
2023-04-15T07:54:50.526Z,27.57
2023-04-15T07:57:18.889Z,27.83
2023-04-15T07:59:47.318Z,28.23
2023-04-15T08:02:15.698Z,28.63
2023-04-15T08:04:44.418Z,27.52
2023-04-15T08:07:12.701Z,27.29
2023-04-15T08:09:40.894Z,28.44
2023-04-15T08:12:12.466Z,26.87
2023-04-15T08:14:40.766Z,27.54
2023-04-15T08:17:10.443Z,28.11
2023-04-15T08:19:38.711Z,28.13
2023-04-15T08:22:06.865Z,27.85
2023-04-15T08:24:44.349Z,27.48
2023-04-15T08:27:12.872Z,28.35
2023-04-15T08:29:40.944Z,27.67
2023-04-15T08:32:09.622Z,26.59
2023-04-15T08:34:38.097Z,25.87
2023-04-15T08:37:07.065Z,27.37
2023-04-15T08:39:35.287Z,26.60
2023-04-15T08:42:05.712Z,26.30
2023-04-15T08:44:34.848Z,26.66
2023-04-15T08:47:03.377Z,26.47
2023-04-15T08:49:32.599Z,27.14
2023-04-15T08:52:02.834Z,26.64
2023-04-15T08:54:31.140Z,25.97
2023-04-15T08:56:59.622Z,26.34
2023-04-15T08:59:27.939Z,25.31
2023-04-15T09:01:56.747Z,25.58
2023-04-15T09:04:24.864Z,24.53
2023-04-15T09:06:53.215Z,25.17
2023-04-15T09:09:21.898Z,25.54
2023-04-15T09:11:51.537Z,24.88
2023-04-15T09:14:19.683Z,24.50
2023-04-15T09:17:04.380Z,24.51
2023-04-15T09:19:34.404Z,25.49
2023-04-15T09:22:02.731Z,25.88
2023-04-15T09:24:37.576Z,26.40
2023-04-15T09:27:06.214Z,24.43
2023-04-15T09:29:34.575Z,24.25
2023-04-15T09:32:13.228Z,23.96
2023-04-15T09:34:41.474Z,24.85
2023-04-15T09:37:11.046Z,25.62
2023-04-15T09:39:50.100Z,25.07
2023-04-15T09:42:24.534Z,23.33
2023-04-15T09:44:56.044Z,23.26
2023-04-15T09:47:31.671Z,23.43
2023-04-15T09:50:01.019Z,23.09
2023-04-15T09:52:29.478Z,23.07
2023-04-15T09:54:58.907Z,23.46
2023-04-15T09:57:36.007Z,22.70
2023-04-15T10:00:05.497Z,22.30
2023-04-15T10:02:38.179Z,22.05
2023-04-15T10:05:07.357Z,21.53
2023-04-15T10:07:35.990Z,20.93
2023-04-15T10:10:05.450Z,21.06
2023-04-15T10:12:33.809Z,21.46
2023-04-15T10:15:05.188Z,21.30
2023-04-15T10:17:35.426Z,22.00
2023-04-15T10:20:05.215Z,22.63
2023-04-15T10:22:33.619Z,23.28
2023-04-15T10:25:02.505Z,22.32
2023-04-15T10:27:30.703Z,21.88
2023-04-15T10:29:58.805Z,22.18
2023-04-15T10:32:27.199Z,21.58
2023-04-15T10:34:55.425Z,23.07
2023-04-15T10:37:36.063Z,22.33
2023-04-15T10:40:24.727Z,21.49
2023-04-15T10:42:54.067Z,21.54
2023-04-15T10:45:22.327Z,20.65
2023-04-15T10:47:57.565Z,23.02
2023-04-15T10:50:26.748Z,22.05
2023-04-15T10:52:54.950Z,22.18
2023-04-15T10:55:26.973Z,20.56
2023-04-15T10:57:56.346Z,19.84
2023-04-15T11:00:31.848Z,20.24
2023-04-15T11:03:00.829Z,20.75
2023-04-15T11:05:41.570Z,22.43
2023-04-15T11:08:10.419Z,21.44
2023-04-15T11:10:38.378Z,21.15
2023-04-15T11:13:18.379Z,20.53
2023-04-15T11:15:47.296Z,21.45
2023-04-15T11:18:20.334Z,22.00
2023-04-15T11:20:52.722Z,21.22
2023-04-15T11:23:31.651Z,20.24
2023-04-15T11:26:01.119Z,21.03
2023-04-15T11:28:30.952Z,21.39
2023-04-15T11:31:00.879Z,20.73
2023-04-15T11:33:29.177Z,21.02
2023-04-15T11:35:57.489Z,20.58
2023-04-15T11:38:25.715Z,21.17
2023-04-15T11:40:53.915Z,20.61
2023-04-15T11:43:22.951Z,20.71
2023-04-15T11:45:58.965Z,20.51
2023-04-15T11:48:27.990Z,20.82
2023-04-15T11:50:57.531Z,21.20
2023-04-15T11:53:26.105Z,21.20
2023-04-15T11:55:53.988Z,20.89
2023-04-15T11:58:23.407Z,20.50
2023-04-15T12:00:52.605Z,20.83
2023-04-15T12:03:30.554Z,20.33
2023-04-15T12:06:08.765Z,20.48
2023-04-15T12:09:06.607Z,20.25
2023-04-15T12:11:40.647Z,20.79
2023-04-15T12:14:12.821Z,20.96
2023-04-15T12:16:50.047Z,20.80
2023-04-15T12:19:24.290Z,22.31
2023-04-15T12:21:51.908Z,21.68
2023-04-15T12:24:21.298Z,21.09
2023-04-15T12:26:49.689Z,20.77
2023-04-15T12:29:17.508Z,21.31
2023-04-15T12:31:52.643Z,21.63
2023-04-15T12:34:29.782Z,20.35
2023-04-15T12:36:58.191Z,20.21
2023-04-15T12:39:25.614Z,20.72
2023-04-15T12:41:53.067Z,20.51
2023-04-15T12:44:20.241Z,20.76
2023-04-15T12:46:47.552Z,20.70
2023-04-15T12:49:16.005Z,20.53
2023-04-15T12:51:42.999Z,20.36
2023-04-15T12:54:09.957Z,20.30
2023-04-15T12:56:39.967Z,20.81
2023-04-15T12:59:07.392Z,20.90
2023-04-15T13:01:34.682Z,20.65
2023-04-15T13:04:02.007Z,20.83
2023-04-15T13:06:29.542Z,20.75
2023-04-15T13:08:58.785Z,20.37
2023-04-15T13:11:26.269Z,20.50
2023-04-15T13:13:53.391Z,20.54
2023-04-15T13:16:20.895Z,20.62
2023-04-15T13:18:48.917Z,20.47
2023-04-15T13:21:16.245Z,20.47
2023-04-15T13:23:43.317Z,20.67
2023-04-15T13:26:10.276Z,21.18
2023-04-15T13:28:37.299Z,21.50
2023-04-15T13:31:05.829Z,21.09
2023-04-15T13:33:32.869Z,20.95
2023-04-15T13:35:59.809Z,20.85
2023-04-15T13:38:26.993Z,21.07
2023-04-15T13:40:54.123Z,21.57
2023-04-15T13:43:21.687Z,21.17
2023-04-15T13:45:48.834Z,20.63
2023-04-15T13:48:16.284Z,20.77
2023-04-15T13:50:45.476Z,20.74
2023-04-15T13:53:13.097Z,21.25
2023-04-15T13:55:43.292Z,21.19
2023-04-15T13:58:10.314Z,20.62
2023-04-15T14:00:37.444Z,20.71
2023-04-15T14:03:04.645Z,20.65
2023-04-15T14:05:32.360Z,20.72
2023-04-15T14:08:00.020Z,20.75
2023-04-15T14:10:27.046Z,20.27
2023-04-15T14:12:54.212Z,20.43
2023-04-15T14:15:21.490Z,20.76
2023-04-15T14:17:48.523Z,20.77
2023-04-15T14:20:17.205Z,21.13
2023-04-15T14:22:44.587Z,21.41
2023-04-15T14:25:17.198Z,21.55
2023-04-15T14:27:50.509Z,21.34
2023-04-15T14:30:17.611Z,20.90
2023-04-15T14:32:44.834Z,21.13
2023-04-15T14:35:11.743Z,20.64
2023-04-15T14:37:38.703Z,20.73
2023-04-15T14:40:06.531Z,20.75
2023-04-15T14:42:33.403Z,21.23
2023-04-15T14:45:00.398Z,20.91
2023-04-15T14:47:27.810Z,21.01
2023-04-15T14:49:54.771Z,21.33
2023-04-15T14:52:21.789Z,21.35
2023-04-15T14:54:48.889Z,21.17
2023-04-15T14:57:16.315Z,21.68
2023-04-15T14:59:43.335Z,21.48
2023-04-15T15:02:11.497Z,21.47
2023-04-15T15:04:40.758Z,21.17
2023-04-15T15:07:07.784Z,21.65
2023-04-15T15:09:35.108Z,21.65
2023-04-15T15:12:02.194Z,21.36
2023-04-15T15:14:29.358Z,21.43
2023-04-15T15:16:56.352Z,21.47
2023-04-15T15:19:24.929Z,21.80
2023-04-15T15:21:51.925Z,22.43
2023-04-15T15:24:18.855Z,22.33
2023-04-15T15:26:45.820Z,22.26
2023-04-15T15:29:12.770Z,22.29
2023-04-15T15:31:39.885Z,21.97
2023-04-15T15:34:07.182Z,22.99
2023-04-15T15:36:34.201Z,23.17
2023-04-15T15:39:01.379Z,23.48
2023-04-15T15:41:28.450Z,23.55
2023-04-15T15:43:55.666Z,23.04
2023-04-15T15:46:24.374Z,22.78
2023-04-15T15:48:51.411Z,22.74
2023-04-15T15:51:18.373Z,22.73
2023-04-15T15:53:45.631Z,23.14
2023-04-15T15:56:12.633Z,23.14
2023-04-15T15:58:39.684Z,23.53
2023-04-15T16:01:06.654Z,24.16
2023-04-15T16:03:33.868Z,24.92
2023-04-15T16:06:01.020Z,25.08
2023-04-15T16:08:28.024Z,25.19
2023-04-15T16:10:55.028Z,25.67
2023-04-15T16:13:22.439Z,25.98
2023-04-15T16:15:52.087Z,26.70
2023-04-15T16:18:19.113Z,27.39
2023-04-15T16:20:46.262Z,27.62
2023-04-15T16:23:16.981Z,27.56
2023-04-15T16:25:44.407Z,27.84
2023-04-15T16:28:25.216Z,27.67
2023-04-15T16:30:53.703Z,27.73
2023-04-15T16:33:20.828Z,27.96
2023-04-15T16:35:47.816Z,28.42
2023-04-15T16:38:14.843Z,28.82
2023-04-15T16:40:42.221Z,28.95
2023-04-15T16:43:11.347Z,30.02
2023-04-15T16:45:38.597Z,30.98
2023-04-15T16:48:06.017Z,31.16
2023-04-15T16:50:32.930Z,32.98
2023-04-15T16:53:00.006Z,34.76
2023-04-15T16:55:27.273Z,34.48
2023-04-15T16:58:02.135Z,34.01
2023-04-15T17:00:36.115Z,33.26
2023-04-15T17:03:03.463Z,33.00
2023-04-15T17:05:33.383Z,32.47
2023-04-15T17:08:00.407Z,32.47
2023-04-15T17:10:27.795Z,32.57
2023-04-15T17:12:56.687Z,32.01
2023-04-15T17:15:24.262Z,31.86
2023-04-15T17:18:08.111Z,31.89
2023-04-15T17:20:38.782Z,31.96
2023-04-15T17:23:07.094Z,32.69
2023-04-15T17:25:35.865Z,32.34
2023-04-15T17:28:06.633Z,32.27
2023-04-15T17:30:36.443Z,32.15
2023-04-15T17:33:57.516Z,32.12
2023-04-15T17:36:31.001Z,32.21
2023-04-15T17:39:17.964Z,32.37
2023-04-15T17:41:44.948Z,32.89
2023-04-15T17:44:31.771Z,33.79
2023-04-15T17:47:18.529Z,33.53
2023-04-15T17:50:11.544Z,33.15
2023-04-15T17:52:58.533Z,33.16
2023-04-15T17:55:46.397Z,32.90
2023-04-15T17:58:33.316Z,32.75
2023-04-15T18:01:22.407Z,32.93
2023-04-15T18:04:09.677Z,32.35
2023-04-15T18:06:56.868Z,32.25
2023-04-15T18:09:44.456Z,32.26
2023-04-15T18:12:31.324Z,31.47
2023-04-15T18:15:18.919Z,31.34
2023-04-15T18:18:06.037Z,31.16
2023-04-15T18:20:33.598Z,31.12
2023-04-15T18:23:01.594Z,31.38
2023-04-15T18:25:30.087Z,31.80
2023-04-15T18:27:57.382Z,31.44
2023-04-15T18:30:24.457Z,32.00
2023-04-15T18:32:51.713Z,32.01
2023-04-15T18:35:19.282Z,31.90
2023-04-15T18:37:46.575Z,31.48
2023-04-15T18:40:15.901Z,31.80
2023-04-15T18:42:43.085Z,31.60
2023-04-15T18:45:10.547Z,31.14
2023-04-15T18:47:37.627Z,31.30
2023-04-15T18:50:05.163Z,31.55
2023-04-15T18:52:33.906Z,31.10
2023-04-15T18:55:03.315Z,31.08
2023-04-15T18:57:33.156Z,30.94
2023-04-15T19:00:02.186Z,31.11
2023-04-15T19:02:33.525Z,31.65
2023-04-15T19:05:04.151Z,31.53
2023-04-15T19:07:32.347Z,31.50
2023-04-15T19:09:59.418Z,31.62
2023-04-15T19:12:26.487Z,31.43
2023-04-15T19:14:53.560Z,31.43
2023-04-15T19:17:20.641Z,31.73
2023-04-15T19:19:47.535Z,32.04
2023-04-15T19:22:14.569Z,32.17
2023-04-15T19:24:41.496Z,31.55
2023-04-15T19:27:08.429Z,31.91
2023-04-15T19:29:35.425Z,31.98
2023-04-15T19:32:02.492Z,31.73
2023-04-15T19:34:29.440Z,32.09
2023-04-15T19:36:56.635Z,31.90
2023-04-15T19:39:23.847Z,31.60
2023-04-15T19:41:51.800Z,32.21
2023-04-15T19:44:20.130Z,31.62
2023-04-15T19:46:50.065Z,31.64
2023-04-15T19:49:17.841Z,31.75
2023-04-15T19:51:44.794Z,32.03
2023-04-15T19:54:11.851Z,31.72
2023-04-15T19:56:38.808Z,32.28
2023-04-15T19:59:06.075Z,31.92
2023-04-15T20:01:33.228Z,32.97
2023-04-15T20:04:00.277Z,33.01
2023-04-15T20:06:27.902Z,32.52
2023-04-15T20:08:54.920Z,32.37
2023-04-15T20:11:22.241Z,32.95
2023-04-15T20:13:49.332Z,32.75
2023-04-15T20:16:16.809Z,32.97
2023-04-15T20:18:43.911Z,33.03
2023-04-15T20:21:10.966Z,33.61
2023-04-15T20:23:38.371Z,33.27
2023-04-15T20:26:05.431Z,33.04
2023-04-15T20:28:32.627Z,33.87
2023-04-15T20:31:02.546Z,33.71
2023-04-15T20:33:29.868Z,32.86
2023-04-15T20:35:56.959Z,33.07
2023-04-15T20:38:23.912Z,33.08
2023-04-15T20:40:51.384Z,32.87
2023-04-15T20:43:18.430Z,33.53
2023-04-15T20:45:45.640Z,32.81
2023-04-15T20:48:12.749Z,33.50
2023-04-15T20:50:39.787Z,33.38
2023-04-15T20:53:06.763Z,33.82
2023-04-15T20:55:33.983Z,33.36
2023-04-15T20:58:01.191Z,33.01
2023-04-15T21:00:28.281Z,33.34
2023-04-15T21:02:55.937Z,33.40
2023-04-15T21:05:23.021Z,33.23
2023-04-15T21:07:50.068Z,33.17
2023-04-15T21:10:16.951Z,33.96
2023-04-15T21:12:44.057Z,33.57
2023-04-15T21:15:11.278Z,34.14
2023-04-15T21:17:38.774Z,33.76
2023-04-15T21:20:06.542Z,33.47
2023-04-15T21:22:33.486Z,33.79
2023-04-15T21:25:00.942Z,33.92
2023-04-15T21:27:27.921Z,33.56
2023-04-15T21:29:55.075Z,34.02
2023-04-15T21:32:22.019Z,33.58
2023-04-15T21:34:49.014Z,33.52
2023-04-15T21:37:16.019Z,33.93
2023-04-15T21:39:43.109Z,34.72
2023-04-15T21:42:10.086Z,34.71
2023-04-15T21:44:37.120Z,34.58
2023-04-15T21:47:04.232Z,34.48
2023-04-15T21:49:31.528Z,34.82
2023-04-15T21:52:01.363Z,35.29
2023-04-15T21:54:28.543Z,34.46
2023-04-15T21:56:57.002Z,35.15
2023-04-15T21:59:24.082Z,35.82
2023-04-15T22:01:51.267Z,35.89
2023-04-15T22:04:18.370Z,36.47
2023-04-15T22:06:45.592Z,37.28
2023-04-15T22:09:14.424Z,39.34
2023-04-15T22:11:41.709Z,39.70
2023-04-15T22:14:09.172Z,40.90
2023-04-15T22:16:36.303Z,41.43
2023-04-15T22:19:03.360Z,41.65
2023-04-15T22:21:30.497Z,42.97
2023-04-15T22:24:38.228Z,44.30
2023-04-15T22:26:44.613Z,43.87
2023-04-15T22:29:11.808Z,43.53
2023-04-15T22:31:38.984Z,44.08
2023-04-15T22:34:05.999Z,43.87
2023-04-15T22:36:33.093Z,44.35
2023-04-15T22:39:00.178Z,43.58
2023-04-15T22:41:27.430Z,42.24
2023-04-15T22:43:54.389Z,42.39
2023-04-15T22:46:21.480Z,41.36
2023-04-15T22:48:48.649Z,41.33
2023-04-15T22:51:21.387Z,43.28
2023-04-15T22:53:48.601Z,42.97
2023-04-15T22:56:15.625Z,43.63
2023-04-15T22:58:42.671Z,44.08
2023-04-15T23:01:09.689Z,44.25
2023-04-15T23:03:55.793Z,43.29
2023-04-15T23:06:23.750Z,43.78
2023-04-15T23:08:51.282Z,42.78
2023-04-15T23:11:18.562Z,42.18
2023-04-15T23:13:45.652Z,41.70
2023-04-15T23:16:12.946Z,41.13
2023-04-15T23:18:39.857Z,40.08
2023-04-15T23:21:06.823Z,39.74
2023-04-15T23:23:33.847Z,39.63
2023-04-15T23:26:01.446Z,39.37
2023-04-15T23:28:28.497Z,39.35
2023-04-15T23:30:56.962Z,38.76
2023-04-15T23:33:25.035Z,39.33
2023-04-15T23:35:52.155Z,39.49
2023-04-15T23:38:19.275Z,39.72
2023-04-15T23:40:46.311Z,40.28
2023-04-15T23:43:13.448Z,40.90
2023-04-15T23:45:40.532Z,41.29
2023-04-15T23:48:07.436Z,39.98
2023-04-15T23:50:34.451Z,41.22
2023-04-15T23:53:02.036Z,40.03
2023-04-15T23:55:29.558Z,40.38
2023-04-15T23:57:56.651Z,39.38
